Airfield :
LOGIN :

Register | Disclaimer

   EN    FR    IT 

 










Legend :    VFR   Marginal VFR   IFR   Intensive IFR   Very Intensive IFR
Visi :
Ceiling :
>= 8 km
>= 3000ft
5 to 8 km
1000 to 3000 ft
1500m to 5 km
500 to 1000 ft
800 to 1500m
200 to 500 ft
< 800m
< 200 ft
Symbols :   Thunderstorms  Fog  Heavy snow  Heavy precipitations  Wind > 20 kt
SIGMETs :     Misc.  Thunderstorms  Icing  Turbulence  Mountain Waves  Volcanic Ashes







- Airport Elevation : 287 ft
- Download approach charts


LFRL - Lanveoc Poulmic

CURRENT METAR :
  • 161330Z AUTO 22008KT 9999 BKN023 BKN029 BKN034 16/10 Q1018 NOSIG

EXPIRED METARs :
  • 161300Z AUTO 20008KT 9999 BKN022 OVC027 15/11 Q1018 NOSIG
  • 161230Z AUTO 21008KT 180V250 9999 BKN021 BKN026 BKN032 15/10 Q1018 NOSIG
  • 161200Z AUTO 25007KT 190V280 9999 BKN018 BKN025 BKN032 16/11 Q1018 NOSIG
  • 161130Z AUTO 20007KT 170V240 9999 BKN019 BKN025 BKN030 15/11 Q1018 TEMPO OVC010
  • 161100Z AUTO 19008KT 150V240 9999 FEW015 BKN022 BKN028 16/11 Q1017 BECMG OVC010

TAF TAF LFRL
Valid from the 16 at 12:00 until the 17 at 12:00 UTC


161100Z 1612/1712 17007KT 9999 BKN025
BECMG 1701/1703 BKN010 OVC030
BECMG 1705/1707 2000 RA OVC003
No reported NOTAMs for that airfield.



MET'MAP, your aeronautical weather chart ! - Copyright ORBIFLY December 2007 - Disclaimer

ORBIFLY MET'MAP TEAM :

Programming & Development : Alexandra Zaïnal
Concept & Development : Baudouin d'Aumeries
Co-Development & Prog : Marc-Olivier Méhu
Technical & hardware support : Manuel Goepfert

Contact : metmap@orbifly.com




SOURCES & CREDITS :

   NOAA